createdAt,value
2019-05-15T00:01:03.732Z,85.9
2019-05-15T00:06:04.703Z,85.1
2019-05-15T00:11:02.655Z,85.3
2019-05-15T00:16:03.631Z,85.3
2019-05-15T00:21:02.604Z,85
2019-05-15T00:26:03.583Z,84.9
2019-05-15T00:31:03.538Z,86.1
2019-05-15T00:35:59.842Z,86.2
2019-05-15T00:41:04.558Z,84.7
2019-05-15T00:46:01.430Z,85.2
2019-05-15T00:51:03.434Z,86.2
2019-05-15T00:56:04.435Z,85.3
2019-05-15T01:01:01.391Z,85.1
2019-05-15T01:06:00.327Z,85.3
2019-05-15T01:11:03.314Z,84.9
2019-05-15T01:15:59.691Z,85.3
2019-05-15T01:21:04.266Z,85
2019-05-15T01:26:01.286Z,84.6
2019-05-15T01:31:04.206Z,84.1
2019-05-15T01:36:02.693Z,85
2019-05-15T01:41:02.119Z,84.1
2019-05-15T01:46:04.119Z,85.4
2019-05-15T01:51:04.086Z,84.9
2019-05-15T01:56:03.052Z,84.6
2019-05-15T02:01:02.245Z,84.8
2019-05-15T02:06:01.991Z,86.5
2019-05-15T02:11:02.961Z,84.9
2019-05-15T02:16:03.185Z,85.5
2019-05-15T02:21:01.930Z,84.6
2019-05-15T02:26:02.921Z,84.6
2019-05-15T02:31:01.325Z,85.2
2019-05-15T02:36:02.827Z,86
2019-05-15T02:41:04.806Z,86.5
2019-05-15T02:46:01.832Z,85.2
2019-05-15T02:51:01.855Z,85.4
2019-05-15T02:56:03.237Z,85.1
2019-05-15T03:01:02.665Z,84.9
2019-05-15T03:06:03.654Z,85.2
2019-05-15T03:11:03.323Z,85
2019-05-15T03:16:03.608Z,85.3
2019-05-15T03:21:02.898Z,85.5
2019-05-15T03:26:08.802Z,86.2
2019-05-15T03:31:48.622Z,86.1
2019-05-15T03:36:04.519Z,86.7
2019-05-15T03:41:02.443Z,86
2019-05-15T03:46:04.436Z,85.6
2019-05-15T03:51:01.404Z,86.7
2019-05-15T03:56:03.364Z,86.7
2019-05-15T04:01:03.325Z,86.1
2019-05-15T04:06:02.301Z,87.2
2019-05-15T04:11:03.307Z,86.7
2019-05-15T04:16:03.237Z,87
2019-05-15T04:21:02.242Z,86.1
2019-05-15T04:26:05.214Z,85.3
2019-05-15T04:31:01.205Z,85.9
2019-05-15T04:36:03.123Z,86.7
2019-05-15T04:41:05.112Z,87.2
2019-05-15T04:46:09.498Z,87.8
2019-05-15T04:51:03.039Z,86.9
2019-05-15T04:56:05.021Z,86.8
2019-05-15T05:01:02.966Z,86.8
2019-05-15T05:06:04.974Z,86.2
2019-05-15T05:11:04.926Z,86.6
2019-05-15T05:16:03.904Z,86.6
2019-05-15T05:21:03.851Z,86.5
2019-05-15T05:26:04.652Z,86.1
2019-05-15T05:31:03.810Z,87.2
2019-05-15T05:36:01.859Z,86.8
2019-05-15T05:41:02.740Z,87
2019-05-15T05:46:03.754Z,85.9
2019-05-15T05:51:01.682Z,85.9
2019-05-15T05:56:03.664Z,85.1
2019-05-15T06:01:01.940Z,85.7
2019-05-15T06:06:02.614Z,86.7
2019-05-15T06:11:00.731Z,86.7
2019-05-15T06:16:03.545Z,85.9
2019-05-15T06:21:02.510Z,85.3
2019-05-15T06:26:04.515Z,86.1
2019-05-15T06:31:01.516Z,86.1
2019-05-15T06:36:03.444Z,85.4
2019-05-15T06:41:05.428Z,86.8
2019-05-15T06:46:02.362Z,86
2019-05-15T06:51:03.331Z,85.1
2019-05-15T06:56:01.368Z,85.5
2019-05-15T07:01:03.281Z,86
2019-05-15T07:06:04.297Z,84.7
2019-05-15T07:11:02.290Z,84.4
2019-05-15T07:16:04.210Z,83.6
2019-05-15T07:21:04.174Z,83.4
2019-05-15T07:26:03.130Z,83.3
2019-05-15T07:31:04.153Z,84.3
2019-05-15T07:36:03.094Z,82.5
2019-05-15T07:41:10.056Z,81.9
2019-05-15T07:46:02.667Z,82.2
2019-05-15T07:51:02.595Z,82.2
2019-05-15T07:56:03.010Z,80.9
2019-05-15T08:01:05.547Z,80.9
2019-05-15T08:06:08.744Z,80.1
2019-05-15T08:11:23.650Z,79.5
2019-05-15T08:16:03.859Z,81.9
2019-05-15T08:21:02.888Z,82.1
2019-05-15T08:26:03.810Z,82.2
2019-05-15T08:31:02.119Z,81.4
2019-05-15T08:36:02.738Z,81.4
2019-05-15T08:41:03.705Z,83
2019-05-15T08:46:02.676Z,82.2
2019-05-15T08:51:03.686Z,81.7
2019-05-15T08:56:01.633Z,81.4
2019-05-15T09:01:03.589Z,82.3
2019-05-15T09:06:03.556Z,81.1
2019-05-15T09:11:02.560Z,81.3
2019-05-15T09:16:01.479Z,81.7
2019-05-15T09:21:03.284Z,82.7
2019-05-15T09:26:02.483Z,82.6
2019-05-15T09:31:03.570Z,82.3
2019-05-15T09:36:03.284Z,81.6
2019-05-15T09:41:03.344Z,83.3
2019-05-15T09:46:03.575Z,81.9
2019-05-15T09:51:04.327Z,82
2019-05-15T09:56:04.288Z,81.9
2019-05-15T10:01:05.294Z,81.9
2019-05-15T10:06:00.018Z,82.6
2019-05-15T10:11:04.240Z,82.3
2019-05-15T10:16:04.173Z,82.3
2019-05-15T10:21:00.018Z,82.1
2019-05-15T10:25:59.948Z,81.5
2019-05-15T10:31:02.046Z,81.3
2019-05-15T10:36:04.084Z,80.7
2019-05-15T10:41:15.079Z,82.2
2019-05-15T10:46:02.980Z,83.6
2019-05-15T10:51:11.061Z,83.8
2019-05-15T10:56:05.952Z,83.7
2019-05-15T11:01:04.158Z,84.8
2019-05-15T11:06:03.882Z,83.8
2019-05-15T11:11:01.861Z,84.5
2019-05-15T11:16:01.937Z,83.7
2019-05-15T11:21:04.789Z,83.6
2019-05-15T11:26:02.737Z,84.2
2019-05-15T11:31:04.745Z,83.9
2019-05-15T11:36:07.725Z,82.9
2019-05-15T11:41:08.622Z,82.8
2019-05-15T11:46:02.622Z,84.1
2019-05-15T11:51:02.602Z,83.8
2019-05-15T11:56:02.496Z,83.2
2019-05-15T12:01:01.546Z,83.2
2019-05-15T12:06:21.823Z,82.7
2019-05-15T12:11:02.211Z,83
2019-05-15T12:16:04.474Z,82.8
2019-05-15T12:21:04.441Z,82.4
2019-05-15T12:26:05.446Z,82.1
2019-05-15T12:31:02.362Z,81.6
2019-05-15T12:36:00.723Z,80.2
2019-05-15T13:01:18.141Z,79.8
2019-05-15T13:06:02.577Z,80.6
2019-05-15T13:11:03.149Z,80.1
2019-05-15T13:16:05.143Z,82
2019-05-15T13:21:04.216Z,82.2
2019-05-15T13:26:03.104Z,83.2
2019-05-15T13:31:04.038Z,82.1
2019-05-15T13:36:02.008Z,81.3
2019-05-15T13:41:02.964Z,81.4
2019-05-15T13:46:03.949Z,81.8
2019-05-15T13:51:02.911Z,81.8
2019-05-15T13:56:02.316Z,81.2
2019-05-15T14:01:01.843Z,80.5
2019-05-15T14:06:02.848Z,80.8
2019-05-15T14:11:03.799Z,81.3
2019-05-15T14:16:02.760Z,81.2
2019-05-15T14:21:03.744Z,81.2
2019-05-15T14:26:22.582Z,82
2019-05-15T14:31:03.679Z,82.7
2019-05-15T14:36:04.695Z,83.7
2019-05-15T14:41:01.651Z,84.3
2019-05-15T14:46:00.775Z,84.9
2019-05-15T14:51:04.604Z,85.7
2019-05-15T14:56:02.568Z,85.7
2019-05-15T15:01:11.375Z,85.6
2019-05-15T15:06:08.611Z,85.7
2019-05-15T15:11:08.677Z,86.2
2019-05-15T15:16:04.466Z,87
2019-05-15T15:21:02.364Z,87.6
2019-05-15T15:26:03.389Z,87.2
2019-05-15T15:31:03.046Z,85.9
2019-05-15T15:36:02.286Z,86.7
2019-05-15T15:41:04.447Z,85.8
2019-05-15T15:46:03.230Z,85.1
2019-05-15T15:51:00.513Z,86.4
2019-05-15T15:56:03.185Z,87.6
2019-05-15T16:01:02.184Z,86.7
2019-05-15T16:06:05.151Z,87.5
2019-05-15T16:11:02.596Z,87
2019-05-15T16:16:03.075Z,87.5
2019-05-15T16:21:02.684Z,87.2
2019-05-15T16:26:05.885Z,88.4
2019-05-15T16:31:02.972Z,88
2019-05-15T16:36:03.072Z,88.7
2019-05-15T16:41:04.559Z,87.5
2019-05-15T16:46:03.912Z,88
2019-05-15T16:51:03.867Z,89.3
2019-05-15T16:56:02.833Z,88.1
2019-05-15T17:01:03.856Z,88.3
2019-05-15T17:06:01.784Z,88.4
2019-05-15T17:11:08.052Z,88.4
2019-05-15T17:16:03.722Z,88.1
2019-05-15T17:21:02.676Z,89.1
2019-05-15T17:26:03.436Z,87.6
2019-05-15T17:31:03.620Z,87.3
2019-05-15T17:36:02.645Z,87.9
2019-05-15T17:41:03.608Z,87.6
2019-05-15T17:46:08.681Z,87.6
2019-05-15T17:51:03.556Z,88.3
2019-05-15T17:56:05.542Z,87.5
2019-05-15T18:01:02.465Z,89
2019-05-15T18:06:04.477Z,88.4
2019-05-15T18:11:01.619Z,87.9
2019-05-15T18:16:12.357Z,89.3
2019-05-15T18:21:01.942Z,88.9
2019-05-15T18:26:05.329Z,89.2
2019-05-15T18:31:04.306Z,87.5
2019-05-15T18:36:08.356Z,88.2
2019-05-15T18:41:05.687Z,89.2
2019-05-15T18:46:02.623Z,89
2019-05-15T18:51:02.558Z,89.1
2019-05-15T18:56:03.138Z,89.5
2019-05-15T19:01:02.328Z,89.7
2019-05-15T19:06:02.114Z,89.9
2019-05-15T19:11:03.539Z,90
2019-05-15T19:16:04.376Z,88.6
2019-05-15T19:21:02.266Z,88.3
2019-05-15T19:26:04.993Z,89.5
2019-05-15T19:31:04.786Z,88.4
2019-05-15T19:36:03.927Z,88.9
2019-05-15T19:41:09.710Z,88.8
2019-05-15T19:46:07.799Z,89.5
2019-05-15T19:51:03.873Z,89.8
2019-05-15T19:56:04.762Z,89.5
2019-05-15T20:01:02.793Z,89.5
2019-05-15T20:06:03.745Z,90.3
2019-05-15T20:11:05.748Z,89.7
2019-05-15T20:16:03.685Z,90
2019-05-15T20:21:05.673Z,89.7
2019-05-15T20:26:02.644Z,88.9
2019-05-15T20:31:04.654Z,90.1
2019-05-15T20:36:04.580Z,90.4
2019-05-15T20:41:03.549Z,89.7
2019-05-15T20:46:03.491Z,88.7
2019-05-15T20:51:03.480Z,89.1
2019-05-15T20:56:02.115Z,88.9
2019-05-15T21:01:05.443Z,89.8
2019-05-15T21:06:02.381Z,89.5
2019-05-15T21:11:03.253Z,89.7
2019-05-15T21:16:04.330Z,89.8
2019-05-15T21:21:02.362Z,89.4
2019-05-15T21:26:04.293Z,90
2019-05-15T21:31:03.974Z,89.9
2019-05-15T21:36:04.226Z,90
2019-05-15T21:41:05.237Z,89.5
2019-05-15T21:46:04.976Z,90.1
2019-05-15T21:51:03.155Z,90
2019-05-15T21:56:03.413Z,89.3
2019-05-15T22:01:08.028Z,90.9
2019-05-15T22:06:04.087Z,89.3
2019-05-15T22:11:04.014Z,90
2019-05-15T22:16:03.983Z,90.4
2019-05-15T22:21:03.963Z,89.9
2019-05-15T22:26:01.906Z,89.2
2019-05-15T22:31:03.905Z,90.1
2019-05-15T22:36:04.885Z,90.2
2019-05-15T22:41:02.827Z,89.1
2019-05-15T22:46:04.827Z,90.3
2019-05-15T22:51:01.838Z,89.2
2019-05-15T22:56:03.764Z,89.7
2019-05-15T23:01:11.817Z,90.6
2019-05-15T23:06:09.775Z,90
2019-05-15T23:11:10.737Z,89.6
2019-05-15T23:16:07.549Z,89.6
2019-05-15T23:21:10.671Z,89.3
2019-05-15T23:26:08.664Z,89.2
2019-05-15T23:31:09.636Z,89.8
2019-05-15T23:36:08.803Z,89.8
2019-05-15T23:41:08.214Z,90.2
2019-05-15T23:46:09.517Z,89.9
2019-05-15T23:51:10.532Z,89.8
2019-05-15T23:56:12.497Z,89.6
